Tropical Cyclones
[Index]
Main Index Home Page Stock Weather Photos Extreme Storms Discussion Storm News and Storm Chasing Reports Tropical Cyclones / Hurricanes / Typhoons Weather Data and Links Wild Fires / Bushfires Weather Observation Techniques Weather Picture Catalogue Tornado Pictures and Reports Stock Video Footage and DVDs for sale
Season 1993-1994 Tropical Cyclone THEODORE Track Map
Season 1993-1994 Summaries: [BoM-AU] [JTWC-AU] [JTWC-SIO] [JTWC-SPAC] [JTWC-SH]
<<- Previous TC | JTWC 1993-1994 Season | Next TC ->>

click for intensity scale information  Lat/long Grid: Show Hide

 Date Labels: Show Hide

Joint Typhoon Warning Centre Cyclone Data

Name: THEODORE

22 Feb 1994 00:00 UTC to 28 Feb 1994 12:00 UTC

    date/time    lat    long     hPa   cat  kts
1994-02-22 00    8.3   154.6                  20          
1994-02-22 06    8.8   155.0                  20          
1994-02-22 12    9.2   155.3                  20          
1994-02-22 18    9.6   155.4                  25          
1994-02-23 00   10.0   155.4                  25          
1994-02-23 06   10.4   155.1                  30          
1994-02-23 12   10.8   154.7            1     40          
1994-02-23 18   11.3   154.4            1     50          
1994-02-24 00   11.8   154.3            2     65          
1994-02-24 06   12.2   154.4            3     75          
1994-02-24 12   12.4   154.5            3     85          
1994-02-24 18   12.7   154.9            3     90          
1994-02-25 00   13.1   155.6            3     95          
1994-02-25 06   13.7   156.5            4    100          
1994-02-25 12   14.3   157.3            4    105          
1994-02-25 18   15.0   158.2            4    110          
1994-02-26 00   15.7   159.4            4    115          
1994-02-26 06   16.8   161.1            4    115          
1994-02-26 12   18.1   162.9            4    110          
1994-02-26 18   19.7   165.0            4    110          
1994-02-27 00   21.7   167.2            4    105          
1994-02-27 06   24.1   169.9            4    100          
1994-02-27 12   26.6   172.6            3     90          
1994-02-27 18   28.2   174.1            3     75          
1994-02-28 00   29.3   174.9            1     45          
1994-02-28 06   30.1   175.6                  35          
1994-02-28 12   31.0   176.6                  30          
Winds are 1-min average.

Tropical cyclone tracks developed by Michael Bath using data from the Joint Typhoon Warning Centre Best Tracks and Google Maps.


[Australian Severe Weather index] [Copyright Notice] [Email Contacts] [Search This Site] [Privacy Policy]
Document: tropical_cyclone_theodore.htm Updated: 18 September 2016